sensor_id;sensor_type;location;lat;lon;timestamp;P1;durP1;ratioP1;P2;durP2;ratioP2
52940;SDS011;62001;53.366;6.636;2022-12-18T00:00:57;181.97;;;54.87;;
52940;SDS011;62001;53.366;6.636;2022-12-18T00:03:23;166.23;;;54.73;;
52940;SDS011;62001;53.366;6.636;2022-12-18T00:05:49;173.60;;;55.47;;
52940;SDS011;62001;53.366;6.636;2022-12-18T00:08:17;171.47;;;56.10;;
52940;SDS011;62001;53.366;6.636;2022-12-18T00:10:44;188.50;;;56.60;;
52940;SDS011;62001;53.366;6.636;2022-12-18T00:13:10;169.20;;;53.23;;
52940;SDS011;62001;53.366;6.636;2022-12-18T00:15:37;172.90;;;55.43;;
52940;SDS011;62001;53.366;6.636;2022-12-18T00:18:04;169.50;;;53.23;;
52940;SDS011;62001;53.366;6.636;2022-12-18T00:20:30;163.57;;;54.23;;
52940;SDS011;62001;53.366;6.636;2022-12-18T00:22:56;163.37;;;52.03;;
52940;SDS011;62001;53.366;6.636;2022-12-18T00:25:22;171.33;;;54.20;;
52940;SDS011;62001;53.366;6.636;2022-12-18T00:27:48;172.03;;;53.73;;
52940;SDS011;62001;53.366;6.636;2022-12-18T00:30:14;170.40;;;55.03;;
52940;SDS011;62001;53.366;6.636;2022-12-18T00:32:40;164.63;;;51.43;;
52940;SDS011;62001;53.366;6.636;2022-12-18T00:35:06;170.97;;;57.57;;
52940;SDS011;62001;53.366;6.636;2022-12-18T00:37:35;160.13;;;53.40;;
52940;SDS011;62001;53.366;6.636;2022-12-18T00:40:01;169.47;;;52.60;;
52940;SDS011;62001;53.366;6.636;2022-12-18T00:42:28;170.37;;;52.63;;
52940;SDS011;62001;53.366;6.636;2022-12-18T00:45:12;161.90;;;52.90;;
52940;SDS011;62001;53.366;6.636;2022-12-18T00:47:38;159.27;;;52.27;;
52940;SDS011;62001;53.366;6.636;2022-12-18T00:50:05;176.57;;;54.50;;
52940;SDS011;62001;53.366;6.636;2022-12-18T00:52:31;149.37;;;49.90;;
52940;SDS011;62001;53.366;6.636;2022-12-18T00:54:57;155.13;;;51.43;;
52940;SDS011;62001;53.366;6.636;2022-12-18T00:57:23;165.63;;;51.70;;
52940;SDS011;62001;53.366;6.636;2022-12-18T00:59:49;157.13;;;50.63;;
52940;SDS011;62001;53.366;6.636;2022-12-18T01:02:14;150.23;;;51.90;;
52940;SDS011;62001;53.366;6.636;2022-12-18T01:04:40;152.00;;;49.73;;
52940;SDS011;62001;53.366;6.636;2022-12-18T01:07:06;149.27;;;50.03;;
52940;SDS011;62001;53.366;6.636;2022-12-18T01:09:32;166.23;;;52.73;;
52940;SDS011;62001;53.366;6.636;2022-12-18T01:11:58;168.17;;;52.20;;
52940;SDS011;62001;53.366;6.636;2022-12-18T01:14:24;163.90;;;52.27;;
52940;SDS011;62001;53.366;6.636;2022-12-18T01:16:49;159.60;;;51.60;;
52940;SDS011;62001;53.366;6.636;2022-12-18T01:19:15;155.73;;;51.87;;
52940;SDS011;62001;53.366;6.636;2022-12-18T01:21:41;158.03;;;49.80;;
52940;SDS011;62001;53.366;6.636;2022-12-18T01:24:07;172.20;;;53.23;;
52940;SDS011;62001;53.366;6.636;2022-12-18T01:26:36;155.10;;;49.83;;
52940;SDS011;62001;53.366;6.636;2022-12-18T01:29:02;156.37;;;50.37;;
52940;SDS011;62001;53.366;6.636;2022-12-18T01:31:29;143.10;;;48.77;;
52940;SDS011;62001;53.366;6.636;2022-12-18T01:33:57;155.60;;;49.03;;
52940;SDS011;62001;53.366;6.636;2022-12-18T01:36:26;153.03;;;50.80;;
52940;SDS011;62001;53.366;6.636;2022-12-18T01:38:54;144.80;;;49.33;;
52940;SDS011;62001;53.366;6.636;2022-12-18T01:41:21;146.30;;;47.77;;
52940;SDS011;62001;53.366;6.636;2022-12-18T01:46:20;155.07;;;49.65;;
52940;SDS011;62001;53.366;6.636;2022-12-18T01:48:49;143.00;;;49.83;;
52940;SDS011;62001;53.366;6.636;2022-12-18T01:51:20;138.47;;;46.83;;
52940;SDS011;62001;53.366;6.636;2022-12-18T01:53:46;151.07;;;51.07;;
52940;SDS011;62001;53.366;6.636;2022-12-18T01:56:15;133.70;;;47.20;;
52940;SDS011;62001;53.366;6.636;2022-12-18T01:59:24;150.80;;;49.70;;
52940;SDS011;62001;53.366;6.636;2022-12-18T02:01:34;136.50;;;48.50;;
52940;SDS011;62001;53.366;6.636;2022-12-18T02:09:50;149.23;;;48.90;;
52940;SDS011;62001;53.366;6.636;2022-12-18T02:12:47;152.50;;;47.83;;
52940;SDS011;62001;53.366;6.636;2022-12-18T02:17:54;149.80;;;48.00;;
52940;SDS011;62001;53.366;6.636;2022-12-18T02:25:39;142.90;;;48.30;;
52940;SDS011;62001;53.366;6.636;2022-12-18T02:28:25;137.97;;;46.43;;
52940;SDS011;62001;53.366;6.636;2022-12-18T02:30:56;139.73;;;46.50;;
52940;SDS011;62001;53.366;6.636;2022-12-18T02:33:26;140.05;;;47.58;;
52940;SDS011;62001;53.366;6.636;2022-12-18T02:35:54;136.80;;;45.70;;
52940;SDS011;62001;53.366;6.636;2022-12-18T02:38:22;136.77;;;45.83;;
52940;SDS011;62001;53.366;6.636;2022-12-18T02:40:49;136.13;;;46.70;;
52940;SDS011;62001;53.366;6.636;2022-12-18T02:43:17;141.23;;;46.70;;
52940;SDS011;62001;53.366;6.636;2022-12-18T02:45:46;140.07;;;47.13;;
52940;SDS011;62001;53.366;6.636;2022-12-18T02:48:18;141.07;;;47.50;;
52940;SDS011;62001;53.366;6.636;2022-12-18T02:50:52;146.55;;;48.10;;
52940;SDS011;62001;53.366;6.636;2022-12-18T02:56:05;139.77;;;46.45;;
52940;SDS011;62001;53.366;6.636;2022-12-18T03:07:15;137.67;;;46.63;;
52940;SDS011;62001;53.366;6.636;2022-12-18T03:09:49;148.13;;;47.87;;
52940;SDS011;62001;53.366;6.636;2022-12-18T03:12:32;152.07;;;48.10;;
52940;SDS011;62001;53.366;6.636;2022-12-18T03:15:25;143.80;;;47.93;;
52940;SDS011;62001;53.366;6.636;2022-12-18T03:18:03;155.50;;;49.17;;
52940;SDS011;62001;53.366;6.636;2022-12-18T03:20:34;152.27;;;46.90;;
52940;SDS011;62001;53.366;6.636;2022-12-18T03:23:07;153.30;;;48.53;;
52940;SDS011;62001;53.366;6.636;2022-12-18T03:25:37;142.30;;;46.93;;
52940;SDS011;62001;53.366;6.636;2022-12-18T03:28:08;148.83;;;49.60;;
52940;SDS011;62001;53.366;6.636;2022-12-18T03:33:09;144.87;;;46.10;;
52940;SDS011;62001;53.366;6.636;2022-12-18T03:35:41;141.43;;;46.23;;
52940;SDS011;62001;53.366;6.636;2022-12-18T03:38:08;152.87;;;47.77;;
52940;SDS011;62001;53.366;6.636;2022-12-18T03:46:08;158.73;;;48.70;;
52940;SDS011;62001;53.366;6.636;2022-12-18T03:48:46;168.40;;;51.90;;
52940;SDS011;62001;53.366;6.636;2022-12-18T03:51:18;177.83;;;52.17;;
52940;SDS011;62001;53.366;6.636;2022-12-18T03:53:55;178.00;;;53.17;;
52940;SDS011;62001;53.366;6.636;2022-12-18T03:56:25;164.77;;;52.33;;
52940;SDS011;62001;53.366;6.636;2022-12-18T03:58:54;163.60;;;53.40;;
52940;SDS011;62001;53.366;6.636;2022-12-18T04:01:23;162.97;;;51.00;;
52940;SDS011;62001;53.366;6.636;2022-12-18T04:03:53;170.60;;;51.50;;
52940;SDS011;62001;53.366;6.636;2022-12-18T04:06:20;165.67;;;52.33;;
52940;SDS011;62001;53.366;6.636;2022-12-18T04:08:46;160.77;;;51.90;;
52940;SDS011;62001;53.366;6.636;2022-12-18T04:11:13;164.17;;;52.67;;
52940;SDS011;62001;53.366;6.636;2022-12-18T04:13:39;155.13;;;51.80;;
52940;SDS011;62001;53.366;6.636;2022-12-18T04:16:08;158.07;;;51.70;;
52940;SDS011;62001;53.366;6.636;2022-12-18T04:18:34;165.17;;;51.93;;
52940;SDS011;62001;53.366;6.636;2022-12-18T04:21:01;151.90;;;51.10;;
52940;SDS011;62001;53.366;6.636;2022-12-18T04:23:27;156.13;;;51.20;;
52940;SDS011;62001;53.366;6.636;2022-12-18T04:25:54;153.40;;;50.57;;
52940;SDS011;62001;53.366;6.636;2022-12-18T04:28:20;158.43;;;51.27;;
52940;SDS011;62001;53.366;6.636;2022-12-18T04:30:49;149.63;;;47.63;;
52940;SDS011;62001;53.366;6.636;2022-12-18T04:33:15;146.87;;;49.20;;
52940;SDS011;62001;53.366;6.636;2022-12-18T04:35:41;144.87;;;48.63;;
52940;SDS011;62001;53.366;6.636;2022-12-18T04:38:07;145.67;;;47.67;;
52940;SDS011;62001;53.366;6.636;2022-12-18T04:40:35;145.27;;;49.33;;
52940;SDS011;62001;53.366;6.636;2022-12-18T04:43:02;144.93;;;49.93;;
52940;SDS011;62001;53.366;6.636;2022-12-18T04:45:29;142.50;;;48.03;;
52940;SDS011;62001;53.366;6.636;2022-12-18T04:47:59;144.90;;;50.23;;
52940;SDS011;62001;53.366;6.636;2022-12-18T04:50:25;135.10;;;48.43;;
52940;SDS011;62001;53.366;6.636;2022-12-18T04:52:52;135.50;;;48.07;;
52940;SDS011;62001;53.366;6.636;2022-12-18T04:55:18;139.17;;;46.03;;
52940;SDS011;62001;53.366;6.636;2022-12-18T04:57:44;134.90;;;46.70;;
52940;SDS011;62001;53.366;6.636;2022-12-18T05:00:10;133.43;;;45.83;;
52940;SDS011;62001;53.366;6.636;2022-12-18T05:02:36;120.40;;;44.13;;
52940;SDS011;62001;53.366;6.636;2022-12-18T05:05:02;137.50;;;46.90;;
52940;SDS011;62001;53.366;6.636;2022-12-18T05:07:28;131.27;;;45.17;;
52940;SDS011;62001;53.366;6.636;2022-12-18T05:09:55;129.67;;;44.53;;
52940;SDS011;62001;53.366;6.636;2022-12-18T05:12:21;131.10;;;46.57;;
52940;SDS011;62001;53.366;6.636;2022-12-18T05:14:46;127.40;;;45.10;;
52940;SDS011;62001;53.366;6.636;2022-12-18T05:17:12;126.87;;;45.93;;
52940;SDS011;62001;53.366;6.636;2022-12-18T05:19:38;127.20;;;45.33;;
52940;SDS011;62001;53.366;6.636;2022-12-18T05:22:04;135.63;;;46.00;;
52940;SDS011;62001;53.366;6.636;2022-12-18T05:24:30;119.53;;;44.07;;
52940;SDS011;62001;53.366;6.636;2022-12-18T05:26:56;127.27;;;44.87;;
52940;SDS011;62001;53.366;6.636;2022-12-18T05:29:22;126.97;;;44.83;;
52940;SDS011;62001;53.366;6.636;2022-12-18T05:31:47;119.47;;;42.80;;
52940;SDS011;62001;53.366;6.636;2022-12-18T05:34:14;125.67;;;43.97;;
52940;SDS011;62001;53.366;6.636;2022-12-18T05:36:39;116.77;;;42.50;;
52940;SDS011;62001;53.366;6.636;2022-12-18T05:39:05;126.87;;;42.37;;
52940;SDS011;62001;53.366;6.636;2022-12-18T05:41:31;119.07;;;42.83;;
52940;SDS011;62001;53.366;6.636;2022-12-18T05:43:57;120.13;;;41.37;;
52940;SDS011;62001;53.366;6.636;2022-12-18T05:46:24;112.70;;;42.23;;
52940;SDS011;62001;53.366;6.636;2022-12-18T05:48:50;115.60;;;39.70;;
52940;SDS011;62001;53.366;6.636;2022-12-18T05:51:17;114.60;;;40.37;;
52940;SDS011;62001;53.366;6.636;2022-12-18T05:53:45;119.13;;;41.53;;
52940;SDS011;62001;53.366;6.636;2022-12-18T05:56:13;109.80;;;42.13;;
52940;SDS011;62001;53.366;6.636;2022-12-18T05:58:40;116.33;;;40.43;;
52940;SDS011;62001;53.366;6.636;2022-12-18T06:01:08;119.10;;;39.60;;
52940;SDS011;62001;53.366;6.636;2022-12-18T06:03:44;114.60;;;40.03;;
52940;SDS011;62001;53.366;6.636;2022-12-18T06:06:17;103.63;;;38.77;;
52940;SDS011;62001;53.366;6.636;2022-12-18T06:08:51;104.38;;;40.33;;
52940;SDS011;62001;53.366;6.636;2022-12-18T06:11:19;107.17;;;39.20;;
52940;SDS011;62001;53.366;6.636;2022-12-18T06:13:49;113.07;;;39.03;;
52940;SDS011;62001;53.366;6.636;2022-12-18T06:16:16;119.70;;;40.83;;
52940;SDS011;62001;53.366;6.636;2022-12-18T06:18:41;108.47;;;38.60;;
52940;SDS011;62001;53.366;6.636;2022-12-18T06:21:07;102.40;;;38.97;;
52940;SDS011;62001;53.366;6.636;2022-12-18T06:23:33;108.10;;;39.93;;
52940;SDS011;62001;53.366;6.636;2022-12-18T06:26:03;109.40;;;39.13;;
52940;SDS011;62001;53.366;6.636;2022-12-18T06:28:34;105.40;;;37.40;;
52940;SDS011;62001;53.366;6.636;2022-12-18T06:31:02;103.90;;;38.43;;
52940;SDS011;62001;53.366;6.636;2022-12-18T06:33:28;98.90;;;38.43;;
52940;SDS011;62001;53.366;6.636;2022-12-18T06:35:59;104.43;;;37.40;;
52940;SDS011;62001;53.366;6.636;2022-12-18T06:38:26;102.60;;;37.30;;
52940;SDS011;62001;53.366;6.636;2022-12-18T06:40:52;93.83;;;35.93;;
52940;SDS011;62001;53.366;6.636;2022-12-18T06:43:18;102.13;;;39.37;;
52940;SDS011;62001;53.366;6.636;2022-12-18T06:45:44;104.57;;;37.00;;
52940;SDS011;62001;53.366;6.636;2022-12-18T06:48:11;96.47;;;35.70;;
52940;SDS011;62001;53.366;6.636;2022-12-18T06:50:37;96.40;;;36.30;;
52940;SDS011;62001;53.366;6.636;2022-12-18T06:53:06;88.70;;;33.63;;
52940;SDS011;62001;53.366;6.636;2022-12-18T06:55:32;92.43;;;34.93;;
52940;SDS011;62001;53.366;6.636;2022-12-18T06:57:58;84.13;;;35.10;;
52940;SDS011;62001;53.366;6.636;2022-12-18T07:00:24;89.50;;;35.27;;
52940;SDS011;62001;53.366;6.636;2022-12-18T07:02:50;84.00;;;33.77;;
52940;SDS011;62001;53.366;6.636;2022-12-18T07:05:15;85.47;;;34.23;;
52940;SDS011;62001;53.366;6.636;2022-12-18T07:07:41;89.13;;;33.97;;
52940;SDS011;62001;53.366;6.636;2022-12-18T07:10:07;82.77;;;33.67;;
52940;SDS011;62001;53.366;6.636;2022-12-18T07:12:33;87.50;;;33.57;;
52940;SDS011;62001;53.366;6.636;2022-12-18T07:15:00;80.87;;;31.40;;
52940;SDS011;62001;53.366;6.636;2022-12-18T07:17:26;79.10;;;32.20;;
52940;SDS011;62001;53.366;6.636;2022-12-18T07:19:51;80.80;;;31.67;;
52940;SDS011;62001;53.366;6.636;2022-12-18T07:22:17;80.57;;;32.80;;
52940;SDS011;62001;53.366;6.636;2022-12-18T07:24:43;76.43;;;31.77;;
52940;SDS011;62001;53.366;6.636;2022-12-18T07:27:09;76.83;;;30.53;;
52940;SDS011;62001;53.366;6.636;2022-12-18T07:29:35;81.83;;;30.67;;
52940;SDS011;62001;53.366;6.636;2022-12-18T07:32:01;75.97;;;30.70;;
52940;SDS011;62001;53.366;6.636;2022-12-18T07:34:27;65.87;;;28.93;;
52940;SDS011;62001;53.366;6.636;2022-12-18T07:36:52;71.37;;;30.20;;
52940;SDS011;62001;53.366;6.636;2022-12-18T07:39:18;66.97;;;28.57;;
52940;SDS011;62001;53.366;6.636;2022-12-18T07:41:44;67.17;;;27.60;;
52940;SDS011;62001;53.366;6.636;2022-12-18T07:44:33;66.27;;;28.33;;
52940;SDS011;62001;53.366;6.636;2022-12-18T07:46:59;63.60;;;27.40;;
52940;SDS011;62001;53.366;6.636;2022-12-18T07:49:24;66.10;;;27.83;;
52940;SDS011;62001;53.366;6.636;2022-12-18T07:51:50;65.70;;;28.43;;
52940;SDS011;62001;53.366;6.636;2022-12-18T07:54:16;63.57;;;27.87;;
52940;SDS011;62001;53.366;6.636;2022-12-18T07:56:42;66.50;;;27.57;;
52940;SDS011;62001;53.366;6.636;2022-12-18T07:59:08;67.50;;;29.33;;
52940;SDS011;62001;53.366;6.636;2022-12-18T08:01:34;64.10;;;29.13;;
52940;SDS011;62001;53.366;6.636;2022-12-18T08:03:59;61.20;;;27.47;;
52940;SDS011;62001;53.366;6.636;2022-12-18T08:06:25;64.43;;;28.27;;
52940;SDS011;62001;53.366;6.636;2022-12-18T08:08:52;63.37;;;27.53;;
52940;SDS011;62001;53.366;6.636;2022-12-18T08:11:19;67.00;;;29.27;;
52940;SDS011;62001;53.366;6.636;2022-12-18T08:13:44;64.53;;;27.80;;
52940;SDS011;62001;53.366;6.636;2022-12-18T08:16:10;67.53;;;28.17;;
52940;SDS011;62001;53.366;6.636;2022-12-18T08:18:36;61.43;;;27.93;;
52940;SDS011;62001;53.366;6.636;2022-12-18T08:21:09;63.40;;;27.60;;
52940;SDS011;62001;53.366;6.636;2022-12-18T08:23:37;61.20;;;27.70;;
52940;SDS011;62001;53.366;6.636;2022-12-18T08:26:03;64.97;;;28.40;;
52940;SDS011;62001;53.366;6.636;2022-12-18T08:28:29;60.50;;;28.47;;
52940;SDS011;62001;53.366;6.636;2022-12-18T08:30:55;59.43;;;27.43;;
52940;SDS011;62001;53.366;6.636;2022-12-18T08:33:21;62.70;;;28.33;;
52940;SDS011;62001;53.366;6.636;2022-12-18T08:35:46;62.10;;;28.83;;
52940;SDS011;62001;53.366;6.636;2022-12-18T08:38:12;59.43;;;27.90;;
52940;SDS011;62001;53.366;6.636;2022-12-18T08:40:38;55.83;;;27.93;;
52940;SDS011;62001;53.366;6.636;2022-12-18T08:43:04;54.23;;;26.27;;
52940;SDS011;62001;53.366;6.636;2022-12-18T08:45:48;60.70;;;26.43;;
52940;SDS011;62001;53.366;6.636;2022-12-18T08:48:14;56.87;;;28.00;;
52940;SDS011;62001;53.366;6.636;2022-12-18T08:50:40;56.50;;;27.50;;
52940;SDS011;62001;53.366;6.636;2022-12-18T08:53:06;53.83;;;27.17;;
52940;SDS011;62001;53.366;6.636;2022-12-18T08:55:31;56.30;;;26.27;;
52940;SDS011;62001;53.366;6.636;2022-12-18T08:57:57;57.57;;;27.10;;
52940;SDS011;62001;53.366;6.636;2022-12-18T09:00:23;51.50;;;25.10;;
52940;SDS011;62001;53.366;6.636;2022-12-18T09:02:49;52.57;;;24.90;;
52940;SDS011;62001;53.366;6.636;2022-12-18T09:05:15;51.90;;;24.53;;
52940;SDS011;62001;53.366;6.636;2022-12-18T09:07:41;50.70;;;24.90;;
52940;SDS011;62001;53.366;6.636;2022-12-18T09:10:06;46.27;;;24.00;;
52940;SDS011;62001;53.366;6.636;2022-12-18T09:12:32;49.43;;;25.23;;
52940;SDS011;62001;53.366;6.636;2022-12-18T09:14:58;46.60;;;23.90;;
52940;SDS011;62001;53.366;6.636;2022-12-18T09:17:24;48.17;;;26.07;;
52940;SDS011;62001;53.366;6.636;2022-12-18T09:19:50;46.40;;;23.53;;
52940;SDS011;62001;53.366;6.636;2022-12-18T09:22:16;45.27;;;23.37;;
52940;SDS011;62001;53.366;6.636;2022-12-18T09:24:42;45.03;;;23.63;;
52940;SDS011;62001;53.366;6.636;2022-12-18T09:27:07;43.50;;;22.97;;
52940;SDS011;62001;53.366;6.636;2022-12-18T09:29:33;42.10;;;22.93;;
52940;SDS011;62001;53.366;6.636;2022-12-18T09:31:59;44.50;;;22.43;;
52940;SDS011;62001;53.366;6.636;2022-12-18T09:34:25;41.87;;;21.33;;
52940;SDS011;62001;53.366;6.636;2022-12-18T09:36:51;41.00;;;20.80;;
52940;SDS011;62001;53.366;6.636;2022-12-18T09:39:17;42.13;;;22.17;;
52940;SDS011;62001;53.366;6.636;2022-12-18T09:41:44;45.20;;;21.27;;
52940;SDS011;62001;53.366;6.636;2022-12-18T09:44:28;37.50;;;20.67;;
52940;SDS011;62001;53.366;6.636;2022-12-18T09:47:16;36.83;;;20.43;;
52940;SDS011;62001;53.366;6.636;2022-12-18T09:49:46;36.90;;;20.83;;
52940;SDS011;62001;53.366;6.636;2022-12-18T09:52:22;40.37;;;20.90;;
52940;SDS011;62001;53.366;6.636;2022-12-18T09:54:52;36.67;;;20.03;;
52940;SDS011;62001;53.366;6.636;2022-12-18T09:57:25;40.00;;;19.77;;
52940;SDS011;62001;53.366;6.636;2022-12-18T10:00:15;36.77;;;20.10;;
52940;SDS011;62001;53.366;6.636;2022-12-18T10:02:45;38.87;;;20.17;;
52940;SDS011;62001;53.366;6.636;2022-12-18T10:05:20;38.13;;;19.80;;
52940;SDS011;62001;53.366;6.636;2022-12-18T10:16:00;39.10;;;21.13;;
52940;SDS011;62001;53.366;6.636;2022-12-18T10:19:10;37.47;;;20.73;;
52940;SDS011;62001;53.366;6.636;2022-12-18T10:21:46;36.57;;;20.63;;
52940;SDS011;62001;53.366;6.636;2022-12-18T10:24:41;41.63;;;20.33;;
52940;SDS011;62001;53.366;6.636;2022-12-18T10:27:15;35.00;;;19.70;;
52940;SDS011;62001;53.366;6.636;2022-12-18T10:29:48;34.33;;;18.07;;
52940;SDS011;62001;53.366;6.636;2022-12-18T10:32:15;30.03;;;17.83;;
52940;SDS011;62001;53.366;6.636;2022-12-18T10:34:49;33.37;;;17.33;;
52940;SDS011;62001;53.366;6.636;2022-12-18T10:37:20;30.93;;;18.13;;
52940;SDS011;62001;53.366;6.636;2022-12-18T10:42:41;29.37;;;17.60;;
52940;SDS011;62001;53.366;6.636;2022-12-18T10:45:10;33.27;;;18.10;;
52940;SDS011;62001;53.366;6.636;2022-12-18T10:47:44;33.43;;;18.67;;
52940;SDS011;62001;53.366;6.636;2022-12-18T10:50:26;29.70;;;18.00;;
52940;SDS011;62001;53.366;6.636;2022-12-18T10:52:59;29.20;;;17.83;;
52940;SDS011;62001;53.366;6.636;2022-12-18T10:55:34;31.13;;;17.37;;
52940;SDS011;62001;53.366;6.636;2022-12-18T10:58:16;30.47;;;16.97;;
52940;SDS011;62001;53.366;6.636;2022-12-18T11:06:27;25.33;;;15.63;;
52940;SDS011;62001;53.366;6.636;2022-12-18T11:09:19;25.83;;;15.57;;
52940;SDS011;62001;53.366;6.636;2022-12-18T11:11:53;23.90;;;14.40;;
52940;SDS011;62001;53.366;6.636;2022-12-18T11:14:22;22.53;;;13.83;;
52940;SDS011;62001;53.366;6.636;2022-12-18T11:16:51;21.73;;;13.50;;
52940;SDS011;62001;53.366;6.636;2022-12-18T11:19:34;21.73;;;13.17;;
52940;SDS011;62001;53.366;6.636;2022-12-18T11:22:03;22.83;;;12.83;;
52940;SDS011;62001;53.366;6.636;2022-12-18T11:25:33;20.47;;;12.43;;
52940;SDS011;62001;53.366;6.636;2022-12-18T11:27:37;20.40;;;12.07;;
52940;SDS011;62001;53.366;6.636;2022-12-18T11:35:54;18.47;;;11.40;;
52940;SDS011;62001;53.366;6.636;2022-12-18T11:38:24;17.33;;;11.13;;
52940;SDS011;62001;53.366;6.636;2022-12-18T11:44:26;19.50;;;10.23;;
52940;SDS011;62001;53.366;6.636;2022-12-18T11:47:00;14.77;;;9.80;;
52940;SDS011;62001;53.366;6.636;2022-12-18T11:49:33;16.53;;;9.90;;
52940;SDS011;62001;53.366;6.636;2022-12-18T11:54:42;16.27;;;9.93;;
52940;SDS011;62001;53.366;6.636;2022-12-18T12:11:20;17.47;;;9.83;;
52940;SDS011;62001;53.366;6.636;2022-12-18T12:19:24;15.33;;;9.87;;
52940;SDS011;62001;53.366;6.636;2022-12-18T12:27:35;15.80;;;9.10;;
52940;SDS011;62001;53.366;6.636;2022-12-18T12:33:35;14.40;;;8.13;;
52940;SDS011;62001;53.366;6.636;2022-12-18T12:39:16;16.37;;;10.00;;
52940;SDS011;62001;53.366;6.636;2022-12-18T12:41:47;16.63;;;8.90;;
52940;SDS011;62001;53.366;6.636;2022-12-18T12:44:37;14.87;;;8.70;;
52940;SDS011;62001;53.366;6.636;2022-12-18T12:47:19;16.83;;;9.37;;
52940;SDS011;62001;53.366;6.636;2022-12-18T12:49:53;13.83;;;8.40;;
52940;SDS011;62001;53.366;6.636;2022-12-18T12:55:26;17.53;;;8.97;;
52940;SDS011;62001;53.366;6.636;2022-12-18T13:03:45;13.93;;;8.50;;
52940;SDS011;62001;53.366;6.636;2022-12-18T13:06:16;13.23;;;8.30;;
52940;SDS011;62001;53.366;6.636;2022-12-18T13:08:57;16.47;;;9.10;;
52940;SDS011;62001;53.366;6.636;2022-12-18T13:11:31;14.33;;;8.03;;
52940;SDS011;62001;53.366;6.636;2022-12-18T13:14:35;13.75;;;8.68;;
52940;SDS011;62001;53.366;6.636;2022-12-18T13:19:55;15.40;;;9.13;;
52940;SDS011;62001;53.366;6.636;2022-12-18T13:22:38;14.43;;;8.80;;
52940;SDS011;62001;53.366;6.636;2022-12-18T13:25:26;15.50;;;9.47;;
52940;SDS011;62001;53.366;6.636;2022-12-18T13:35:38;16.63;;;8.70;;
52940;SDS011;62001;53.366;6.636;2022-12-18T13:40:56;15.70;;;8.77;;
52940;SDS011;62001;53.366;6.636;2022-12-18T13:43:23;13.00;;;8.40;;
52940;SDS011;62001;53.366;6.636;2022-12-18T13:48:32;13.60;;;8.43;;
52940;SDS011;62001;53.366;6.636;2022-12-18T13:56:30;12.80;;;8.40;;
52940;SDS011;62001;53.366;6.636;2022-12-18T13:59:32;14.33;;;8.37;;
52940;SDS011;62001;53.366;6.636;2022-12-18T14:02:14;13.43;;;8.17;;
52940;SDS011;62001;53.366;6.636;2022-12-18T14:04:45;14.67;;;8.83;;
52940;SDS011;62001;53.366;6.636;2022-12-18T14:07:29;14.87;;;8.97;;
52940;SDS011;62001;53.366;6.636;2022-12-18T14:09:57;13.13;;;8.30;;
52940;SDS011;62001;53.366;6.636;2022-12-18T14:12:26;15.13;;;8.77;;
52940;SDS011;62001;53.366;6.636;2022-12-18T14:17:54;15.80;;;9.37;;
52940;SDS011;62001;53.366;6.636;2022-12-18T14:20:25;14.70;;;9.13;;
52940;SDS011;62001;53.366;6.636;2022-12-18T14:22:52;16.40;;;9.23;;
52940;SDS011;62001;53.366;6.636;2022-12-18T14:25:22;15.47;;;9.40;;
52940;SDS011;62001;53.366;6.636;2022-12-18T14:28:00;17.17;;;9.80;;
52940;SDS011;62001;53.366;6.636;2022-12-18T14:30:39;18.63;;;10.20;;
52940;SDS011;62001;53.366;6.636;2022-12-18T14:33:09;14.48;;;9.98;;
52940;SDS011;62001;53.366;6.636;2022-12-18T14:35:40;18.53;;;10.40;;
52940;SDS011;62001;53.366;6.636;2022-12-18T14:38:26;19.90;;;10.93;;
52940;SDS011;62001;53.366;6.636;2022-12-18T14:40:55;18.33;;;10.13;;
52940;SDS011;62001;53.366;6.636;2022-12-18T14:43:27;16.43;;;11.00;;
52940;SDS011;62001;53.366;6.636;2022-12-18T14:45:56;20.47;;;11.50;;
52940;SDS011;62001;53.366;6.636;2022-12-18T14:48:36;21.00;;;11.60;;
52940;SDS011;62001;53.366;6.636;2022-12-18T14:54:01;20.60;;;12.20;;
52940;SDS011;62001;53.366;6.636;2022-12-18T14:56:29;21.07;;;11.83;;
52940;SDS011;62001;53.366;6.636;2022-12-18T14:59:01;19.00;;;12.00;;
52940;SDS011;62001;53.366;6.636;2022-12-18T15:01:30;22.20;;;12.20;;
52940;SDS011;62001;53.366;6.636;2022-12-18T15:04:00;19.08;;;12.38;;
52940;SDS011;62001;53.366;6.636;2022-12-18T15:06:29;19.80;;;12.40;;
52940;SDS011;62001;53.366;6.636;2022-12-18T15:09:04;19.53;;;12.23;;
52940;SDS011;62001;53.366;6.636;2022-12-18T15:11:45;24.93;;;14.03;;
52940;SDS011;62001;53.366;6.636;2022-12-18T15:17:14;21.90;;;12.57;;
52940;SDS011;62001;53.366;6.636;2022-12-18T15:19:45;21.60;;;13.23;;
52940;SDS011;62001;53.366;6.636;2022-12-18T15:22:17;23.43;;;13.60;;
52940;SDS011;62001;53.366;6.636;2022-12-18T15:24:43;20.23;;;13.00;;
52940;SDS011;62001;53.366;6.636;2022-12-18T15:27:23;22.67;;;13.07;;
52940;SDS011;62001;53.366;6.636;2022-12-18T15:30:39;20.27;;;13.07;;
52940;SDS011;62001;53.366;6.636;2022-12-18T15:32:47;22.90;;;13.27;;
52940;SDS011;62001;53.366;6.636;2022-12-18T15:35:16;24.50;;;13.33;;
52940;SDS011;62001;53.366;6.636;2022-12-18T15:37:47;23.87;;;13.47;;
52940;SDS011;62001;53.366;6.636;2022-12-18T15:40:14;20.10;;;13.03;;
52940;SDS011;62001;53.366;6.636;2022-12-18T15:42:43;22.27;;;13.17;;
52940;SDS011;62001;53.366;6.636;2022-12-18T15:45:28;22.53;;;13.67;;
52940;SDS011;62001;53.366;6.636;2022-12-18T15:47:54;22.47;;;13.27;;
52940;SDS011;62001;53.366;6.636;2022-12-18T15:50:20;22.63;;;13.57;;
52940;SDS011;62001;53.366;6.636;2022-12-18T15:52:46;21.60;;;13.30;;
52940;SDS011;62001;53.366;6.636;2022-12-18T15:55:15;25.40;;;13.47;;
52940;SDS011;62001;53.366;6.636;2022-12-18T15:58:02;22.03;;;13.27;;
52940;SDS011;62001;53.366;6.636;2022-12-18T16:00:29;21.23;;;13.27;;
52940;SDS011;62001;53.366;6.636;2022-12-18T16:02:55;22.50;;;13.60;;
52940;SDS011;62001;53.366;6.636;2022-12-18T16:05:21;22.83;;;13.73;;
52940;SDS011;62001;53.366;6.636;2022-12-18T16:07:48;25.00;;;14.30;;
52940;SDS011;62001;53.366;6.636;2022-12-18T16:10:14;21.90;;;13.40;;
52940;SDS011;62001;53.366;6.636;2022-12-18T16:12:40;21.50;;;13.97;;
52940;SDS011;62001;53.366;6.636;2022-12-18T16:15:06;21.73;;;13.33;;
52940;SDS011;62001;53.366;6.636;2022-12-18T16:17:33;24.90;;;14.00;;
52940;SDS011;62001;53.366;6.636;2022-12-18T16:19:58;22.80;;;13.57;;
52940;SDS011;62001;53.366;6.636;2022-12-18T16:22:25;22.33;;;13.90;;
52940;SDS011;62001;53.366;6.636;2022-12-18T16:24:53;23.10;;;13.03;;
52940;SDS011;62001;53.366;6.636;2022-12-18T16:27:20;21.40;;;13.60;;
52940;SDS011;62001;53.366;6.636;2022-12-18T16:29:47;23.80;;;13.13;;
52940;SDS011;62001;53.366;6.636;2022-12-18T16:32:15;22.53;;;13.40;;
52940;SDS011;62001;53.366;6.636;2022-12-18T16:34:43;19.67;;;12.13;;
52940;SDS011;62001;53.366;6.636;2022-12-18T16:37:10;22.83;;;12.53;;
52940;SDS011;62001;53.366;6.636;2022-12-18T16:39:38;22.57;;;12.63;;
52940;SDS011;62001;53.366;6.636;2022-12-18T16:42:06;20.43;;;12.83;;
52940;SDS011;62001;53.366;6.636;2022-12-18T16:44:37;21.27;;;11.93;;
52940;SDS011;62001;53.366;6.636;2022-12-18T16:47:03;20.73;;;12.43;;
52940;SDS011;62001;53.366;6.636;2022-12-18T16:49:29;18.50;;;12.07;;